Time;durP1;ratioP1;P1;durP2;ratioP2;P2;SDS_P1;SDS_P2;PMS_P1;PMS_P2;Temp;Humidity;BMP_temperature;BMP_pressure;BME280_temperature;BME280_humidity;BME280_pressure;Samples;Min_cycle;Max_cycle;Signal;HPM_P1;HPM_P2
2022/12/21 00:01:26;;;;;;;13.57;8.40;;;5.00;99.90;;;;;;5029623;28;20244;-52
2022/12/21 00:03:54;;;;;;;10.33;8.30;;;4.90;99.90;;;;;;5027180;28;20382;-53
2022/12/21 00:06:22;;;;;;;11.77;7.97;;;4.90;99.90;;;;;;5026972;28;20699;-49
2022/12/21 00:08:52;;;;;;;8.30;6.67;;;4.90;99.90;;;;;;5021235;28;20227;-52
2022/12/21 00:11:21;;;;;;;8.10;7.17;;;4.80;99.90;;;;;;5029604;28;20210;-49
2022/12/21 00:13:48;;;;;;;8.90;7.40;;;4.90;99.90;;;;;;5026572;28;20255;-49
2022/12/21 00:16:18;;;;;;;7.23;5.87;;;4.90;99.90;;;;;;5025965;28;20207;-49
2022/12/21 00:18:47;;;;;;;9.90;7.47;;;4.90;99.90;;;;;;5031435;28;20206;-51
2022/12/21 00:21:16;;;;;;;8.67;6.53;;;4.90;99.90;;;;;;5031894;28;20212;-50
2022/12/21 00:23:45;;;;;;;10.13;7.23;;;4.90;99.90;;;;;;5022170;28;20227;-50
2022/12/21 00:26:13;;;;;;;10.60;7.03;;;4.90;99.90;;;;;;5025711;28;20215;-50
2022/12/21 00:28:41;;;;;;;10.13;7.57;;;4.90;99.90;;;;;;5027064;28;20216;-52
2022/12/21 00:31:11;;;;;;;7.77;6.80;;;5.00;99.90;;;;;;5030209;28;20235;-51
2022/12/21 00:33:39;;;;;;;10.07;7.17;;;5.00;99.90;;;;;;5019594;28;20220;-50
2022/12/21 00:36:10;;;;;;;10.10;7.33;;;5.00;99.90;;;;;;5025875;28;20204;-50
2022/12/21 00:38:37;;;;;;;6.87;6.07;;;4.90;99.90;;;;;;5030537;28;20205;-49
2022/12/21 00:41:07;;;;;;;8.43;7.00;;;4.90;99.90;;;;;;5029450;28;20561;-50
2022/12/21 00:43:36;;;;;;;9.30;7.33;;;4.90;99.90;;;;;;5025569;28;20236;-48
2022/12/21 00:46:04;;;;;;;7.60;6.97;;;4.80;99.90;;;;;;5025283;28;20202;-50
2022/12/21 00:48:32;;;;;;;9.67;7.50;;;4.70;99.90;;;;;;5030045;28;20225;-50
2022/12/21 00:51:05;;;;;;;10.67;7.27;;;4.70;99.90;;;;;;5023000;28;20205;-50
2022/12/21 00:53:33;;;;;;;8.77;7.00;;;4.70;99.90;;;;;;5025317;28;20255;-52
2022/12/21 00:56:01;;;;;;;8.23;6.93;;;4.70;99.90;;;;;;5031195;28;20197;-50
2022/12/21 00:58:30;;;;;;;6.97;6.37;;;4.70;99.90;;;;;;5031077;28;20200;-49
2022/12/21 01:00:59;;;;;;;6.90;6.30;;;4.70;99.90;;;;;;5022141;28;20243;-48
2022/12/21 01:03:27;;;;;;;8.80;6.63;;;4.70;99.90;;;;;;5020965;28;20611;-50
2022/12/21 01:05:54;;;;;;;10.50;7.33;;;4.60;99.90;;;;;;5029807;28;20237;-50
2022/12/21 01:08:24;;;;;;;11.23;7.83;;;4.60;99.90;;;;;;5030652;28;20226;-51
2022/12/21 01:10:57;;;;;;;8.67;6.80;;;4.60;99.90;;;;;;5030791;28;20212;-49
2022/12/21 01:13:24;;;;;;;7.70;6.90;;;4.60;99.90;;;;;;5030823;28;20654;-50
2022/12/21 01:15:51;;;;;;;8.93;6.70;;;4.60;99.90;;;;;;5028233;28;20741;-50
2022/12/21 01:18:18;;;;;;;8.73;7.27;;;4.60;99.90;;;;;;5019364;28;20199;-51
2022/12/21 01:20:48;;;;;;;8.10;6.60;;;4.70;99.90;;;;;;5011035;28;20367;-51
2022/12/21 01:23:15;;;;;;;10.73;6.37;;;4.70;99.90;;;;;;5027581;28;20224;-50
2022/12/21 01:25:43;;;;;;;9.13;6.10;;;4.70;99.90;;;;;;5030827;28;20239;-50
2022/12/21 01:28:12;;;;;;;8.83;6.23;;;4.80;99.90;;;;;;5026950;28;20240;-50
2022/12/21 01:30:40;;;;;;;6.93;6.23;;;4.90;99.90;;;;;;5026586;28;20201;-49
2022/12/21 01:33:07;;;;;;;7.97;6.27;;;5.00;99.90;;;;;;5030558;28;20729;-51
2022/12/21 01:35:39;;;;;;;7.87;5.77;;;5.10;99.90;;;;;;5017009;28;20216;-49
2022/12/21 01:38:06;;;;;;;6.47;5.50;;;5.10;99.90;;;;;;5011814;28;20201;-50
2022/12/21 01:40:33;;;;;;;7.57;5.10;;;5.20;99.90;;;;;;5025323;28;20213;-49
2022/12/21 01:43:00;;;;;;;5.60;5.10;;;5.20;99.90;;;;;;5036015;28;20654;-49
2022/12/21 01:45:30;;;;;;;6.93;4.73;;;5.20;99.90;;;;;;5037180;28;20560;-51
2022/12/21 01:48:00;;;;;;;6.60;5.00;;;5.30;99.90;;;;;;5032261;28;20217;-50
2022/12/21 01:50:39;;;;;;;5.10;4.60;;;5.40;99.90;;;;;;5033833;28;20207;-51
2022/12/21 01:53:09;;;;;;;6.00;5.27;;;5.40;99.90;;;;;;5025703;28;20223;-50
2022/12/21 01:55:37;;;;;;;5.83;4.23;;;5.40;99.90;;;;;;5029192;28;20301;-52
2022/12/21 01:58:07;;;;;;;4.50;4.10;;;5.40;99.90;;;;;;5032473;28;20349;-52
2022/12/21 02:00:36;;;;;;;4.93;4.43;;;5.40;99.90;;;;;;5032574;28;20733;-50
2022/12/21 02:03:07;;;;;;;7.03;5.13;;;5.40;99.90;;;;;;5033949;28;20747;-51
2022/12/21 02:05:41;;;;;;;3.50;3.20;;;5.60;99.90;;;;;;5032406;28;20204;-52
2022/12/21 02:08:08;;;;;;;4.43;3.03;;;5.70;99.90;;;;;;5034126;28;20232;-49
2022/12/21 02:10:35;;;;;;;4.73;3.73;;;5.90;99.90;;;;;;5034453;28;20202;-54
2022/12/21 02:13:04;;;;;;;5.10;3.43;;;6.00;99.90;;;;;;5034656;28;20229;-49
2022/12/21 02:15:50;;;;;;;3.73;3.43;;;6.00;99.90;;;;;;5034081;28;20206;-50
2022/12/21 02:18:28;;;;;;;4.00;3.53;;;6.10;99.90;;;;;;5027381;28;20274;-50
2022/12/21 02:21:15;;;;;;;4.63;4.10;;;6.00;99.90;;;;;;5032639;28;20197;-52
2022/12/21 02:24:11;;;;;;;4.00;3.60;;;6.00;99.90;;;;;;5033385;28;20220;-50
2022/12/21 02:26:56;;;;;;;6.23;4.13;;;5.90;99.90;;;;;;5033784;28;20208;-50
2022/12/21 02:30:07;;;;;;;5.23;4.70;;;5.80;99.90;;;;;;5033084;28;20559;-50
2022/12/21 02:32:55;;;;;;;4.73;4.33;;;5.70;99.90;;;;;;5030748;28;20226;-49
2022/12/21 02:35:36;;;;;;;7.40;4.90;;;5.60;99.90;;;;;;5034176;28;20205;-51
2022/12/21 02:38:14;;;;;;;4.93;4.43;;;5.50;99.90;;;;;;5030906;28;20196;-49
2022/12/21 02:40:51;;;;;;;4.40;4.00;;;5.50;99.90;;;;;;5033548;28;20205;-50
2022/12/21 02:46:20;;;;;;;5.13;4.50;;;5.40;99.90;;;;;;5031936;28;20249;-49
2022/12/21 02:48:53;;;;;;;4.47;4.03;;;5.40;99.90;;;;;;5033266;28;20281;-50
2022/12/21 02:51:26;;;;;;;7.43;4.90;;;5.40;99.90;;;;;;5025428;28;20200;-51
2022/12/21 02:53:54;;;;;;;4.57;4.17;;;5.50;99.90;;;;;;5033249;28;20223;-49
2022/12/21 02:56:22;;;;;;;5.10;4.23;;;5.40;99.90;;;;;;5027332;28;20212;-50
2022/12/21 02:58:49;;;;;;;4.87;4.30;;;5.30;99.90;;;;;;5024746;28;20227;-50
2022/12/21 03:01:39;;;;;;;5.47;4.70;;;5.50;99.90;;;;;;5027433;28;20213;-51
2022/12/21 03:04:27;;;;;;;5.73;4.40;;;5.40;99.90;;;;;;5026134;28;20237;-51
2022/12/21 03:07:13;;;;;;;5.43;3.80;;;5.50;99.90;;;;;;5032774;28;20209;-51
2022/12/21 03:09:48;;;;;;;4.83;4.03;;;5.40;99.90;;;;;;5025532;28;20703;-50
2022/12/21 03:12:23;;;;;;;4.10;3.67;;;5.40;99.90;;;;;;5032869;28;20201;-49
2022/12/21 03:14:55;;;;;;;5.20;4.43;;;5.30;99.90;;;;;;5019432;28;20258;-51
2022/12/21 03:17:32;;;;;;;5.70;4.73;;;5.20;99.90;;;;;;5033052;28;20205;-51
2022/12/21 03:20:07;;;;;;;7.17;5.30;;;5.30;99.90;;;;;;5029775;28;20204;-50
2022/12/21 03:22:41;;;;;;;6.20;4.63;;;5.20;99.90;;;;;;5032724;28;20227;-51
2022/12/21 03:25:14;;;;;;;6.40;4.60;;;5.20;99.90;;;;;;5032670;28;20202;-50
2022/12/21 03:27:46;;;;;;;9.43;5.60;;;5.20;99.90;;;;;;5030980;28;20709;-50
2022/12/21 03:30:16;;;;;;;6.43;5.23;;;5.20;99.90;;;;;;5032407;28;20691;-50
2022/12/21 03:32:47;;;;;;;5.47;4.97;;;5.10;99.90;;;;;;5024897;28;20222;-50
2022/12/21 03:35:24;;;;;;;6.13;4.87;;;5.00;99.90;;;;;;5031282;28;20204;-49
2022/12/21 03:37:52;;;;;;;4.70;4.00;;;5.00;99.90;;;;;;5032879;28;20203;-50
2022/12/21 03:40:23;;;;;;;4.40;4.00;;;4.90;99.90;;;;;;5027311;28;20214;-50
2022/12/21 03:42:58;;;;;;;5.07;4.50;;;4.90;99.90;;;;;;5032210;28;20228;-51
2022/12/21 03:45:31;;;;;;;5.80;4.60;;;5.00;99.90;;;;;;5030225;28;20204;-51
2022/12/21 03:48:04;;;;;;;6.90;5.23;;;5.10;99.90;;;;;;5031152;28;20216;-50
2022/12/21 03:50:38;;;;;;;5.63;4.53;;;5.10;99.90;;;;;;5031893;28;20694;-50
2022/12/21 03:53:09;;;;;;;5.37;4.87;;;5.00;99.90;;;;;;5032071;28;20734;-50
2022/12/21 03:55:39;;;;;;;4.80;4.40;;;5.00;99.90;;;;;;5031123;28;20210;-50
2022/12/21 03:58:08;;;;;;;5.00;4.50;;;5.00;99.90;;;;;;5029454;28;20560;-49
2022/12/21 04:00:44;;;;;;;6.07;4.87;;;5.00;99.90;;;;;;5030631;28;20216;-49
2022/12/21 04:03:17;;;;;;;4.83;4.33;;;5.00;99.90;;;;;;5028229;28;20232;-53
2022/12/21 04:05:52;;;;;;;5.23;4.73;;;5.00;99.90;;;;;;5032165;28;20216;-49
2022/12/21 04:08:19;;;;;;;5.87;4.43;;;5.10;99.90;;;;;;5025186;28;20219;-51
2022/12/21 04:10:48;;;;;;;4.37;3.97;;;5.10;99.90;;;;;;5027886;28;20200;-50
2022/12/21 04:13:14;;;;;;;4.97;4.07;;;5.10;99.90;;;;;;5032034;28;20254;-51
2022/12/21 04:21:12;;;;;;;8.43;5.33;;;5.00;99.90;;;;;;5017157;28;20267;-50
2022/12/21 04:29:04;;;;;;;5.77;4.90;;;5.00;99.90;;;;;;4993658;28;20279;-50
2022/12/21 04:31:31;;;;;;;6.27;5.07;;;5.10;99.90;;;;;;5031250;28;20209;-50
2022/12/21 04:33:58;;;;;;;6.33;4.80;;;5.10;99.90;;;;;;5030115;28;20288;-50
2022/12/21 04:39:11;;;;;;;5.53;4.97;;;5.00;99.90;;;;;;5035493;28;20559;-50
2022/12/21 04:41:38;;;;;;;5.50;4.93;;;4.90;99.90;;;;;;5031225;28;20236;-49
2022/12/21 04:44:05;;;;;;;6.83;5.57;;;4.90;99.90;;;;;;5031493;28;20732;-50
2022/12/21 04:46:32;;;;;;;6.77;4.83;;;4.90;99.90;;;;;;5031379;28;20244;-53
2022/12/21 04:48:59;;;;;;;6.13;5.30;;;5.10;99.90;;;;;;5028646;28;20768;-49
2022/12/21 04:51:27;;;;;;;4.93;4.53;;;5.10;99.90;;;;;;5031274;28;20228;-50
2022/12/21 04:53:55;;;;;;;6.87;4.60;;;5.10;99.90;;;;;;5023153;28;20226;-49
2022/12/21 04:56:22;;;;;;;5.57;4.83;;;5.10;99.90;;;;;;5031401;28;20564;-49
2022/12/21 04:58:49;;;;;;;5.87;5.37;;;5.10;99.90;;;;;;5030288;28;20201;-51
2022/12/21 05:01:17;;;;;;;7.47;5.13;;;5.00;99.90;;;;;;5029797;28;20255;-50
2022/12/21 05:03:45;;;;;;;6.93;5.30;;;4.90;99.90;;;;;;5030692;28;20234;-49
2022/12/21 05:06:14;;;;;;;8.57;5.13;;;4.90;99.90;;;;;;5031288;28;20676;-51
2022/12/21 05:08:42;;;;;;;5.07;4.57;;;4.90;99.90;;;;;;5030586;28;20269;-50
2022/12/21 05:11:11;;;;;;;5.80;5.27;;;5.00;99.90;;;;;;5032102;28;20250;-49
2022/12/21 05:13:39;;;;;;;5.90;4.60;;;5.00;99.90;;;;;;5030323;28;20227;-51
2022/12/21 05:16:08;;;;;;;8.30;4.53;;;5.00;99.90;;;;;;5026388;28;20292;-49
2022/12/21 05:18:35;;;;;;;4.40;4.00;;;4.90;99.90;;;;;;5031441;28;20638;-50
2022/12/21 05:21:03;;;;;;;4.57;4.27;;;4.90;99.90;;;;;;5031501;28;20249;-51
2022/12/21 05:23:30;;;;;;;5.07;4.27;;;4.90;99.90;;;;;;5026441;28;20285;-49
2022/12/21 05:25:58;;;;;;;7.47;4.33;;;4.90;99.90;;;;;;5031112;28;20212;-51
2022/12/21 05:28:25;;;;;;;5.50;4.53;;;4.90;99.90;;;;;;5030898;28;20215;-50
2022/12/21 05:30:52;;;;;;;5.30;4.80;;;4.90;99.90;;;;;;5031057;28;20257;-49
2022/12/21 05:33:19;;;;;;;4.03;3.73;;;4.90;99.90;;;;;;5027078;28;20281;-49
2022/12/21 05:35:46;;;;;;;6.47;4.63;;;5.00;99.90;;;;;;5029986;28;20739;-49
2022/12/21 05:38:13;;;;;;;4.23;3.93;;;5.00;99.90;;;;;;5027364;28;20196;-50
2022/12/21 05:40:40;;;;;;;7.60;5.63;;;5.00;99.90;;;;;;5030535;28;20283;-48
2022/12/21 05:43:09;;;;;;;5.80;4.47;;;5.00;99.90;;;;;;5031421;28;20219;-51
2022/12/21 05:45:36;;;;;;;6.13;4.37;;;5.00;99.90;;;;;;5031107;28;20270;-50
2022/12/21 05:48:03;;;;;;;5.60;5.10;;;5.00;99.90;;;;;;5030942;28;20225;-51
2022/12/21 05:50:30;;;;;;;4.97;4.67;;;5.10;99.90;;;;;;5018093;28;20280;-50
2022/12/21 05:52:57;;;;;;;5.00;4.50;;;5.00;99.90;;;;;;5011162;28;20237;-52
2022/12/21 05:55:24;;;;;;;6.80;5.70;;;5.00;99.90;;;;;;5026735;28;20202;-50
2022/12/21 05:57:51;;;;;;;8.93;6.33;;;5.00;99.90;;;;;;5031281;28;20702;-51
2022/12/21 06:00:20;;;;;;;7.23;5.20;;;5.00;99.90;;;;;;5031476;28;20208;-50
2022/12/21 06:02:47;;;;;;;8.97;6.13;;;5.00;99.90;;;;;;5031883;28;20225;-51
2022/12/21 06:05:14;;;;;;;9.37;7.17;;;5.00;99.90;;;;;;5030787;28;20201;-51
2022/12/21 06:07:41;;;;;;;9.00;5.87;;;5.00;99.90;;;;;;5023967;28;20197;-51
2022/12/21 06:10:10;;;;;;;6.23;5.83;;;5.00;99.90;;;;;;5041594;28;20675;-49
2022/12/21 06:12:37;;;;;;;8.60;5.50;;;5.10;99.90;;;;;;5049789;28;20223;-49
2022/12/21 06:15:05;;;;;;;4.80;4.30;;;5.10;99.90;;;;;;5029047;28;20194;-51
2022/12/21 06:17:33;;;;;;;5.80;4.80;;;5.10;99.90;;;;;;5028505;28;20212;-52
2022/12/21 06:20:00;;;;;;;5.80;5.00;;;5.10;99.90;;;;;;5042721;28;20194;-50
2022/12/21 06:22:27;;;;;;;4.80;4.40;;;5.10;99.90;;;;;;5045519;28;20748;-49
2022/12/21 06:24:54;;;;;;;8.77;5.13;;;5.10;99.90;;;;;;5036964;28;20597;-51
2022/12/21 06:27:21;;;;;;;6.17;5.73;;;5.20;99.90;;;;;;5035435;28;20560;-50
2022/12/21 06:29:48;;;;;;;17.93;9.53;;;5.30;99.90;;;;;;5049257;28;20302;-51
2022/12/21 06:32:15;;;;;;;19.37;10.80;;;5.30;99.90;;;;;;5047904;28;20211;-49
2022/12/21 06:34:43;;;;;;;12.43;9.10;;;5.40;99.90;;;;;;5043252;28;20205;-52
2022/12/21 06:37:10;;;;;;;10.13;7.90;;;5.40;99.90;;;;;;5044896;28;20213;-51
2022/12/21 06:39:37;;;;;;;6.17;4.70;;;5.40;99.90;;;;;;5044238;28;20201;-49
2022/12/21 06:42:05;;;;;;;4.87;4.03;;;5.30;99.90;;;;;;5018108;28;20643;-50
2022/12/21 06:44:32;;;;;;;4.90;4.50;;;5.40;99.90;;;;;;5014141;28;20280;-50
2022/12/21 06:46:59;;;;;;;4.80;4.33;;;5.40;99.90;;;;;;5013969;28;20244;-50
2022/12/21 06:49:26;;;;;;;5.33;4.80;;;5.40;99.90;;;;;;5035885;28;20223;-52
2022/12/21 06:51:57;;;;;;;6.60;4.23;;;5.40;99.90;;;;;;5037812;28;20207;-50
2022/12/21 06:54:24;;;;;;;5.70;4.10;;;5.40;99.90;;;;;;5033903;28;20218;-49
2022/12/21 06:56:54;;;;;;;6.53;4.17;;;5.40;99.90;;;;;;5031014;28;20300;-50
2022/12/21 06:59:21;;;;;;;5.43;4.50;;;5.40;99.90;;;;;;5037544;28;20288;-49
2022/12/21 07:01:48;;;;;;;4.87;4.10;;;5.50;99.90;;;;;;5035426;28;20581;-48
2022/12/21 07:04:15;;;;;;;6.87;4.47;;;5.60;99.90;;;;;;5053349;28;20244;-49
2022/12/21 07:06:42;;;;;;;4.10;3.43;;;5.80;99.90;;;;;;5053695;28;20270;-49
2022/12/21 07:09:13;;;;;;;3.50;3.20;;;5.80;99.90;;;;;;5044820;28;20214;-49
2022/12/21 07:11:40;;;;;;;3.07;2.83;;;5.90;99.90;;;;;;5033422;28;20649;-49
2022/12/21 07:14:07;;;;;;;2.97;2.77;;;5.90;99.90;;;;;;5028367;28;20223;-50
2022/12/21 07:16:34;;;;;;;3.13;2.30;;;5.90;99.90;;;;;;5030142;28;20239;-50
2022/12/21 07:19:01;;;;;;;3.97;2.33;;;5.90;99.90;;;;;;5032946;28;20265;-49
2022/12/21 07:21:28;;;;;;;3.30;3.00;;;5.90;99.90;;;;;;5024486;28;20209;-50
2022/12/21 07:23:55;;;;;;;3.87;2.77;;;5.90;99.90;;;;;;5030539;28;20266;-49
2022/12/21 07:26:24;;;;;;;2.90;2.70;;;5.90;99.90;;;;;;5030890;28;20287;-49
2022/12/21 07:28:52;;;;;;;2.53;2.33;;;5.90;99.90;;;;;;5028699;28;20224;-50
2022/12/21 07:31:20;;;;;;;3.27;3.07;;;5.90;99.90;;;;;;5030328;28;20212;-50
2022/12/21 07:33:47;;;;;;;3.40;3.10;;;6.00;99.90;;;;;;5030312;28;20298;-51
2022/12/21 07:36:17;;;;;;;9.47;3.60;;;6.00;99.90;;;;;;5021324;28;20201;-50
2022/12/21 07:38:44;;;;;;;8.23;6.20;;;6.00;99.90;;;;;;5022350;28;20197;-50
2022/12/21 07:41:13;;;;;;;6.10;5.60;;;6.10;99.90;;;;;;5024057;28;20213;-51
2022/12/21 07:43:42;;;;;;;5.80;4.87;;;6.10;99.90;;;;;;5027444;28;20269;-50
2022/12/21 07:46:09;;;;;;;5.93;4.77;;;6.10;99.90;;;;;;5031854;28;20204;-49
2022/12/21 07:48:36;;;;;;;8.73;5.17;;;6.00;99.90;;;;;;5026551;28;20224;-51
2022/12/21 07:51:04;;;;;;;6.43;4.47;;;5.90;99.90;;;;;;5016770;28;20588;-51
2022/12/21 07:53:33;;;;;;;6.07;5.30;;;5.80;99.90;;;;;;5016404;28;20229;-52
2022/12/21 07:56:01;;;;;;;10.17;5.17;;;5.80;99.90;;;;;;5034534;28;20277;-49
2022/12/21 07:58:28;;;;;;;12.63;5.80;;;5.70;99.90;;;;;;5018881;28;20204;-51
2022/12/21 08:01:03;;;;;;;7.03;4.67;;;5.70;99.90;;;;;;5019849;28;20200;-49
2022/12/21 08:03:29;;;;;;;12.00;5.30;;;5.60;99.90;;;;;;5025955;28;20233;-50
2022/12/21 08:05:56;;;;;;;8.13;5.17;;;5.50;99.90;;;;;;5025820;28;20210;-51
2022/12/21 08:08:24;;;;;;;8.10;6.30;;;5.50;99.90;;;;;;5022373;28;20206;-49
2022/12/21 08:10:51;;;;;;;10.23;7.27;;;5.50;99.90;;;;;;5029328;28;20206;-48
2022/12/21 08:13:18;;;;;;;10.90;6.17;;;5.50;99.90;;;;;;5024684;28;20311;-48
2022/12/21 08:15:45;;;;;;;12.47;6.77;;;5.50;99.90;;;;;;5023343;28;20208;-49
2022/12/21 08:18:14;;;;;;;10.80;6.40;;;5.50;99.90;;;;;;5018157;28;20250;-48
2022/12/21 08:20:44;;;;;;;17.50;8.10;;;5.50;99.90;;;;;;5013736;28;20204;-49
2022/12/21 08:23:11;;;;;;;12.17;7.53;;;5.50;99.90;;;;;;5020901;28;20224;-49
2022/12/21 08:25:38;;;;;;;14.87;9.10;;;5.40;99.90;;;;;;5016130;28;20698;-49
2022/12/21 08:28:05;;;;;;;18.80;9.93;;;5.50;99.90;;;;;;5028648;28;20312;-48
2022/12/21 08:30:33;;;;;;;13.10;8.67;;;5.50;99.90;;;;;;5023192;28;20221;-50
2022/12/21 08:33:00;;;;;;;12.73;7.47;;;5.50;99.90;;;;;;5030933;28;20324;-49
2022/12/21 08:35:30;;;;;;;17.07;8.63;;;5.50;99.90;;;;;;5031364;28;20207;-49
2022/12/21 08:37:57;;;;;;;26.47;10.57;;;5.40;99.90;;;;;;5031498;28;20290;-49
2022/12/21 08:40:25;;;;;;;16.17;9.47;;;5.30;99.90;;;;;;5012871;28;20677;-50
2022/12/21 08:42:52;;;;;;;12.97;8.83;;;5.20;99.90;;;;;;5011825;28;20304;-49
2022/12/21 08:45:19;;;;;;;11.00;7.17;;;5.20;99.90;;;;;;5011796;28;20206;-52
2022/12/21 08:47:48;;;;;;;14.20;6.63;;;5.20;99.90;;;;;;5011769;28;20656;-50
2022/12/21 08:50:15;;;;;;;8.63;5.37;;;5.20;99.90;;;;;;5011810;28;20226;-51
2022/12/21 08:52:43;;;;;;;6.33;4.07;;;5.20;99.90;;;;;;5031275;28;20276;-48
2022/12/21 08:55:11;;;;;;;7.10;4.47;;;5.30;99.90;;;;;;5030786;28;20211;-50
2022/12/21 08:57:38;;;;;;;9.53;5.30;;;5.30;99.90;;;;;;5010934;28;20743;-50
2022/12/21 09:00:09;;;;;;;8.93;5.63;;;5.40;99.90;;;;;;5011626;28;20206;-50
2022/12/21 09:02:36;;;;;;;4.70;4.40;;;5.40;99.90;;;;;;5011181;28;20318;-49
2022/12/21 09:05:05;;;;;;;5.63;5.13;;;5.40;99.90;;;;;;5011672;28;20214;-51
2022/12/21 09:07:32;;;;;;;10.97;6.93;;;5.40;99.90;;;;;;5011409;28;20728;-50
2022/12/21 09:10:00;;;;;;;7.97;6.07;;;5.40;99.90;;;;;;5015523;28;20239;-49
2022/12/21 09:12:27;;;;;;;8.17;6.87;;;5.40;99.90;;;;;;5029096;28;20259;-51
2022/12/21 09:14:54;;;;;;;11.60;6.33;;;5.50;99.90;;;;;;5030443;28;20227;-49
2022/12/21 09:17:22;;;;;;;12.47;8.50;;;5.50;99.90;;;;;;5031378;28;20238;-51
2022/12/21 09:19:49;;;;;;;8.07;6.20;;;5.60;99.90;;;;;;5030561;28;20192;-49
2022/12/21 09:22:17;;;;;;;6.77;5.70;;;5.60;99.90;;;;;;5030483;28;20276;-50
2022/12/21 09:24:44;;;;;;;11.50;6.10;;;5.70;99.90;;;;;;5030870;28;20549;-50
2022/12/21 09:27:12;;;;;;;5.60;4.40;;;5.80;99.90;;;;;;5030746;28;20209;-49
2022/12/21 09:29:39;;;;;;;4.77;3.70;;;6.00;99.90;;;;;;5026656;28;20230;-49
2022/12/21 09:32:06;;;;;;;4.60;4.20;;;6.20;99.90;;;;;;5015647;28;20705;-50
2022/12/21 09:34:33;;;;;;;3.38;2.58;;;6.50;99.90;;;;;;5020509;28;20454;-48
2022/12/21 09:37:00;;;;;;;2.73;2.53;;;6.70;99.90;;;;;;5031311;28;20245;-50
2022/12/21 09:39:27;;;;;;;7.73;3.60;;;6.90;99.90;;;;;;5030875;28;20256;-51
2022/12/21 09:42:06;;;;;;;5.00;3.93;;;6.90;99.90;;;;;;5031074;28;20251;-49
2022/12/21 09:45:01;;;;;;;4.37;3.13;;;7.00;99.90;;;;;;5042037;28;20273;-48
2022/12/21 09:47:35;;;;;;;7.27;2.70;;;7.00;99.90;;;;;;5028237;28;20208;-50
2022/12/21 09:50:07;;;;;;;5.07;2.23;;;7.00;99.90;;;;;;5019218;28;20314;-53
2022/12/21 09:52:39;;;;;;;5.20;3.30;;;7.00;99.90;;;;;;5015845;28;20649;-50
2022/12/21 09:55:12;;;;;;;7.13;3.03;;;7.00;99.90;;;;;;5028141;28;20208;-50
2022/12/21 09:57:39;;;;;;;3.23;2.47;;;7.00;99.90;;;;;;5029045;28;20261;-50
2022/12/21 10:00:16;;;;;;;4.70;2.83;;;7.10;99.90;;;;;;5034606;28;20285;-48
2022/12/21 10:03:10;;;;;;;3.57;3.27;;;7.10;99.90;;;;;;5022460;28;20692;-49
2022/12/21 10:05:52;;;;;;;7.20;3.13;;;7.00;99.90;;;;;;5010948;28;20208;-50
2022/12/21 10:08:52;;;;;;;6.63;3.47;;;7.00;99.90;;;;;;5019462;28;20208;-48
2022/12/21 10:11:32;;;;;;;3.23;2.93;;;7.00;99.90;;;;;;5033998;28;20228;-50
2022/12/21 10:14:04;;;;;;;3.70;2.63;;;6.90;99.90;;;;;;5033255;28;20285;-49
2022/12/21 10:16:41;;;;;;;3.67;2.63;;;7.00;99.90;;;;;;5034383;28;20203;-49
2022/12/21 10:19:18;;;;;;;6.73;2.97;;;7.00;99.90;;;;;;5032914;28;20208;-50
2022/12/21 10:21:56;;;;;;;4.70;2.53;;;6.90;99.90;;;;;;5033765;28;20201;-51
2022/12/21 10:24:27;;;;;;;4.23;3.47;;;6.90;99.90;;;;;;5032991;28;20235;-50
2022/12/21 10:27:02;;;;;;;3.50;2.60;;;6.90;99.90;;;;;;5033579;28;20198;-50
2022/12/21 10:29:35;;;;;;;4.17;3.10;;;6.90;99.90;;;;;;5033320;28;20226;-48
2022/12/21 10:32:04;;;;;;;4.43;3.30;;;6.90;99.90;;;;;;5028915;28;20200;-50
2022/12/21 10:34:34;;;;;;;8.73;3.87;;;7.00;99.90;;;;;;5033745;28;20290;-50
2022/12/21 10:37:06;;;;;;;4.83;3.37;;;7.10;99.90;;;;;;5034127;28;20298;-50
2022/12/21 10:39:33;;;;;;;4.23;3.67;;;7.10;99.90;;;;;;5034152;28;20223;-50
2022/12/21 10:42:05;;;;;;;5.83;4.23;;;7.20;99.90;;;;;;5028048;28;20268;-49
2022/12/21 10:44:33;;;;;;;3.30;3.00;;;7.30;99.90;;;;;;5027870;28;20224;-50
2022/12/21 10:47:00;;;;;;;4.33;3.93;;;7.40;99.90;;;;;;5019477;28;20203;-50
2022/12/21 10:49:36;;;;;;;6.70;4.57;;;7.40;99.90;;;;;;5030952;28;20242;-51
2022/12/21 10:52:34;;;;;;;10.33;4.33;;;7.40;99.90;;;;;;5033515;28;20208;-51
2022/12/21 10:55:02;;;;;;;4.53;3.70;;;7.40;99.90;;;;;;5031530;28;20246;-51
2022/12/21 10:57:32;;;;;;;4.93;3.70;;;7.40;99.90;;;;;;5030557;28;20201;-49
2022/12/21 11:00:20;;;;;;;5.40;3.53;;;7.40;99.90;;;;;;5025296;28;20251;-49
2022/12/21 11:02:48;;;;;;;4.83;3.43;;;7.40;99.90;;;;;;5032257;28;20236;-50
2022/12/21 11:05:29;;;;;;;4.13;3.53;;;7.30;99.90;;;;;;5032322;28;20241;-49
2022/12/21 11:08:19;;;;;;;8.43;5.63;;;7.30;99.90;;;;;;5031107;28;20203;-50
2022/12/21 11:10:48;;;;;;;7.80;5.10;;;7.30;99.90;;;;;;5031592;28;20252;-50
2022/12/21 11:13:16;;;;;;;6.43;4.33;;;7.40;99.90;;;;;;5022456;28;20229;-50
2022/12/21 11:15:56;;;;;;;4.87;3.97;;;7.40;99.90;;;;;;5032332;28;20226;-51
2022/12/21 11:18:34;;;;;;;6.43;4.47;;;7.40;99.90;;;;;;5033184;28;20239;-50
2022/12/21 11:21:05;;;;;;;8.57;3.67;;;7.40;99.90;;;;;;5032354;28;20802;-51
2022/12/21 11:23:33;;;;;;;8.80;4.73;;;7.40;99.90;;;;;;5033120;28;20224;-52
2022/12/21 11:26:00;;;;;;;4.97;2.87;;;7.50;99.90;;;;;;5032974;28;20216;-53
2022/12/21 11:28:28;;;;;;;5.17;4.50;;;7.50;99.90;;;;;;5033174;28;20636;-50
2022/12/21 11:31:01;;;;;;;6.57;3.80;;;7.70;99.90;;;;;;5021278;28;20224;-52
2022/12/21 11:33:29;;;;;;;14.20;7.87;;;7.70;99.90;;;;;;5032760;28;20235;-49
2022/12/21 11:36:16;;;;;;;13.10;9.63;;;7.80;99.90;;;;;;5033092;28;20207;-51
2022/12/21 11:38:43;;;;;;;15.27;10.57;;;7.80;99.90;;;;;;5033018;28;20207;-52
2022/12/21 11:41:28;;;;;;;11.90;10.23;;;7.80;99.90;;;;;;5032419;28;20200;-52
2022/12/21 11:43:57;;;;;;;8.93;7.83;;;7.70;99.90;;;;;;5032694;28;20274;-50
2022/12/21 11:46:42;;;;;;;15.37;10.67;;;7.70;99.90;;;;;;5028899;28;20650;-52
2022/12/21 11:49:35;;;;;;;11.53;8.63;;;7.80;99.90;;;;;;5030611;28;20200;-51
2022/12/21 11:52:12;;;;;;;10.70;8.80;;;7.80;99.90;;;;;;5034405;28;20885;-50
2022/12/21 11:54:48;;;;;;;12.83;8.67;;;7.90;99.90;;;;;;5030087;28;20214;-52
2022/12/21 11:57:28;;;;;;;16.33;9.53;;;7.80;99.90;;;;;;5031283;28;20228;-51
2022/12/21 12:00:07;;;;;;;26.30;8.00;;;7.80;99.90;;;;;;5032093;28;20199;-50
2022/12/21 12:03:13;;;;;;;8.10;7.07;;;7.80;99.90;;;;;;5035328;28;20235;-50
2022/12/21 12:06:03;;;;;;;22.67;11.47;;;7.80;99.90;;;;;;5018194;28;20207;-51
2022/12/21 12:08:49;;;;;;;23.10;10.80;;;7.70;99.90;;;;;;5034052;28;20197;-50
2022/12/21 12:11:29;;;;;;;23.53;11.53;;;7.70;99.90;;;;;;5026522;28;20231;-51
2022/12/21 12:14:21;;;;;;;22.00;13.43;;;7.70;99.90;;;;;;5012304;28;20235;-50
2022/12/21 12:17:06;;;;;;;15.00;8.60;;;7.60;99.90;;;;;;5010560;28;20220;-50
2022/12/21 12:19:43;;;;;;;11.10;7.87;;;7.70;99.90;;;;;;5028210;28;20215;-50
2022/12/21 12:22:22;;;;;;;10.63;7.93;;;7.60;99.90;;;;;;5044460;28;20203;-49
2022/12/21 12:25:09;;;;;;;11.23;7.80;;;7.70;99.90;;;;;;5044923;28;20199;-51
2022/12/21 12:27:58;;;;;;;10.97;7.33;;;7.70;99.90;;;;;;5043718;28;20222;-51
2022/12/21 12:30:31;;;;;;;8.40;7.30;;;7.70;99.90;;;;;;5051688;28;20227;-51
2022/12/21 12:33:09;;;;;;;14.40;9.10;;;7.70;99.90;;;;;;5049756;28;20758;-50
2022/12/21 12:36:02;;;;;;;8.53;7.40;;;7.80;99.90;;;;;;5051742;28;20269;-50
2022/12/21 12:38:44;;;;;;;6.60;5.90;;;7.80;99.90;;;;;;5021448;28;20533;-51
2022/12/21 12:41:31;;;;;;;7.23;6.43;;;7.80;99.90;;;;;;5018617;28;20469;-50
2022/12/21 12:44:02;;;;;;;16.93;7.30;;;7.80;99.90;;;;;;5039756;28;20235;-51
2022/12/21 12:46:57;;;;;;;7.33;6.40;;;7.80;99.90;;;;;;5031504;28;20201;-52
2022/12/21 12:49:44;;;;;;;8.47;6.93;;;7.70;99.90;;;;;;5031673;28;20316;-50
2022/12/21 12:52:23;;;;;;;13.43;7.87;;;7.70;99.90;;;;;;5031233;28;20263;-52
2022/12/21 12:54:58;;;;;;;16.87;10.80;;;7.60;99.90;;;;;;5024235;28;20219;-52
2022/12/21 12:57:35;;;;;;;14.87;9.87;;;7.60;99.90;;;;;;5016454;28;20196;-51
2022/12/21 13:00:08;;;;;;;11.07;8.80;;;7.60;99.90;;;;;;5039379;28;20606;-51
2022/12/21 13:02:44;;;;;;;9.97;7.83;;;7.60;99.90;;;;;;5030886;28;20270;-50
2022/12/21 13:05:30;;;;;;;9.83;8.13;;;7.60;99.90;;;;;;5041116;28;20242;-50
2022/12/21 13:08:07;;;;;;;9.50;8.17;;;7.60;99.90;;;;;;5048846;28;20680;-52
2022/12/21 13:10:46;;;;;;;9.03;8.07;;;7.60;99.90;;;;;;5050930;28;20221;-52
2022/12/21 13:13:23;;;;;;;8.57;7.00;;;7.70;99.90;;;;;;5013099;28;20256;-52
2022/12/21 13:15:54;;;;;;;8.53;6.90;;;7.60;99.90;;;;;;5030241;28;20617;-52
2022/12/21 13:18:25;;;;;;;8.70;6.83;;;7.60;99.90;;;;;;5031108;28;20694;-51
2022/12/21 13:20:56;;;;;;;7.77;7.03;;;7.60;99.90;;;;;;5030877;28;20662;-51
2022/12/21 13:23:36;;;;;;;7.47;6.77;;;7.60;99.90;;;;;;5031211;28;20263;-52
2022/12/21 13:26:10;;;;;;;7.47;6.77;;;7.60;99.90;;;;;;5031049;28;20643;-51
2022/12/21 13:28:48;;;;;;;9.10;8.30;;;7.60;99.90;;;;;;5022142;28;20626;-52
2022/12/21 13:31:18;;;;;;;8.00;7.23;;;7.60;99.90;;;;;;5030517;28;20216;-52
2022/12/21 13:33:50;;;;;;;11.57;7.00;;;7.60;99.90;;;;;;5030819;28;20712;-52
2022/12/21 13:36:19;;;;;;;7.13;6.53;;;7.70;99.90;;;;;;5028006;28;20311;-53